Terminal Aerodrome Forecast
Issued by NWS

Home | Current Version | Previous Version | Text Only | Print | Product List | Glossary On
Versions: 1 2 3 4 5 6 7 8 9 10 11 12 13 14 15 16 17 18 19 20 21 22 23 24 25 26
000
FTUS45 KREV 192300
TAFTVL
TAF
KTVL 192329Z 2000/2024 05007KT P6SM VCSH SCT080
     FM200300 VRB04KT P6SM FEW080 FEW250
     FM202200 03006KT P6SM VCTS SCT080CB BKN180=

USA.gov is the U.S. government's official web portal to all federal, state and local government web resources and services.